sensor_id;sensor_type;location;lat;lon;timestamp;temperature;humidity
17762;DHT22;9005;48.838;10.112;2024-03-06T00:00:15;3.50;96.10
17762;DHT22;9005;48.838;10.112;2024-03-06T00:02:41;3.60;96.20
17762;DHT22;9005;48.838;10.112;2024-03-06T00:05:08;3.60;96.30
17762;DHT22;9005;48.838;10.112;2024-03-06T00:07:36;3.60;96.30
17762;DHT22;9005;48.838;10.112;2024-03-06T00:10:03;3.70;96.20
17762;DHT22;9005;48.838;10.112;2024-03-06T00:12:31;3.70;96.20
17762;DHT22;9005;48.838;10.112;2024-03-06T00:14:58;3.80;95.70
17762;DHT22;9005;48.838;10.112;2024-03-06T00:17:24;3.80;95.70
17762;DHT22;9005;48.838;10.112;2024-03-06T00:19:51;3.90;95.70
17762;DHT22;9005;48.838;10.112;2024-03-06T00:22:18;3.90;95.80
17762;DHT22;9005;48.838;10.112;2024-03-06T00:24:46;3.90;95.90
17762;DHT22;9005;48.838;10.112;2024-03-06T00:27:13;3.90;96.10
17762;DHT22;9005;48.838;10.112;2024-03-06T00:29:40;4.00;96.10
17762;DHT22;9005;48.838;10.112;2024-03-06T00:32:07;4.00;96.20
17762;DHT22;9005;48.838;10.112;2024-03-06T00:34:33;4.00;96.30
17762;DHT22;9005;48.838;10.112;2024-03-06T00:37:00;4.00;96.30
17762;DHT22;9005;48.838;10.112;2024-03-06T00:39:27;4.00;96.40
17762;DHT22;9005;48.838;10.112;2024-03-06T00:41:55;4.00;96.30
17762;DHT22;9005;48.838;10.112;2024-03-06T00:44:22;4.10;96.20
17762;DHT22;9005;48.838;10.112;2024-03-06T00:46:48;4.00;96.20
17762;DHT22;9005;48.838;10.112;2024-03-06T00:49:15;4.10;96.10
17762;DHT22;9005;48.838;10.112;2024-03-06T00:51:42;4.10;96.10
17762;DHT22;9005;48.838;10.112;2024-03-06T00:54:10;4.10;96.10
17762;DHT22;9005;48.838;10.112;2024-03-06T00:56:37;4.10;96.00
17762;DHT22;9005;48.838;10.112;2024-03-06T00:59:05;4.10;95.70
17762;DHT22;9005;48.838;10.112;2024-03-06T01:01:31;4.10;95.70
17762;DHT22;9005;48.838;10.112;2024-03-06T01:03:58;4.10;95.80
17762;DHT22;9005;48.838;10.112;2024-03-06T01:06:24;4.10;95.70
17762;DHT22;9005;48.838;10.112;2024-03-06T01:08:51;4.10;95.80
17762;DHT22;9005;48.838;10.112;2024-03-06T01:11:18;4.10;95.90
17762;DHT22;9005;48.838;10.112;2024-03-06T01:13:45;4.10;95.90
17762;DHT22;9005;48.838;10.112;2024-03-06T01:16:13;4.10;95.90
17762;DHT22;9005;48.838;10.112;2024-03-06T01:18:39;4.10;96.00
17762;DHT22;9005;48.838;10.112;2024-03-06T01:21:06;4.00;95.20
17762;DHT22;9005;48.838;10.112;2024-03-06T01:23:33;4.00;95.10
17762;DHT22;9005;48.838;10.112;2024-03-06T01:25:59;3.90;95.00
17762;DHT22;9005;48.838;10.112;2024-03-06T01:28:26;3.90;95.00
17762;DHT22;9005;48.838;10.112;2024-03-06T01:30:54;3.90;95.20
17762;DHT22;9005;48.838;10.112;2024-03-06T01:33:22;3.90;95.30
17762;DHT22;9005;48.838;10.112;2024-03-06T01:35:48;3.80;95.30
17762;DHT22;9005;48.838;10.112;2024-03-06T01:38:15;3.80;95.40
17762;DHT22;9005;48.838;10.112;2024-03-06T01:40:43;3.80;95.50
17762;DHT22;9005;48.838;10.112;2024-03-06T01:43:21;3.80;95.60
17762;DHT22;9005;48.838;10.112;2024-03-06T01:45:48;3.80;95.70
17762;DHT22;9005;48.838;10.112;2024-03-06T01:48:16;3.80;95.70
17762;DHT22;9005;48.838;10.112;2024-03-06T01:50:46;3.80;95.80
17762;DHT22;9005;48.838;10.112;2024-03-06T01:53:13;3.80;95.80
17762;DHT22;9005;48.838;10.112;2024-03-06T01:55:41;3.80;95.80
17762;DHT22;9005;48.838;10.112;2024-03-06T01:58:08;3.80;96.00
17762;DHT22;9005;48.838;10.112;2024-03-06T02:00:36;3.90;96.00
17762;DHT22;9005;48.838;10.112;2024-03-06T02:03:03;3.80;96.00
17762;DHT22;9005;48.838;10.112;2024-03-06T02:05:30;3.80;96.00
17762;DHT22;9005;48.838;10.112;2024-03-06T02:07:59;3.80;96.00
17762;DHT22;9005;48.838;10.112;2024-03-06T02:10:26;3.80;95.90
17762;DHT22;9005;48.838;10.112;2024-03-06T02:12:53;3.80;95.90
17762;DHT22;9005;48.838;10.112;2024-03-06T02:15:20;3.70;95.90
17762;DHT22;9005;48.838;10.112;2024-03-06T02:17:47;3.70;95.80
17762;DHT22;9005;48.838;10.112;2024-03-06T02:20:14;3.70;95.80
17762;DHT22;9005;48.838;10.112;2024-03-06T02:22:43;3.70;95.80
17762;DHT22;9005;48.838;10.112;2024-03-06T02:25:10;3.70;95.80
17762;DHT22;9005;48.838;10.112;2024-03-06T02:27:37;3.70;96.00
17762;DHT22;9005;48.838;10.112;2024-03-06T02:30:05;3.70;95.90
17762;DHT22;9005;48.838;10.112;2024-03-06T02:32:32;3.70;95.90
17762;DHT22;9005;48.838;10.112;2024-03-06T02:35:00;3.70;95.70
17762;DHT22;9005;48.838;10.112;2024-03-06T02:37:27;3.70;95.70
17762;DHT22;9005;48.838;10.112;2024-03-06T02:39:55;3.70;95.70
17762;DHT22;9005;48.838;10.112;2024-03-06T02:42:23;3.70;95.70
17762;DHT22;9005;48.838;10.112;2024-03-06T02:44:50;3.70;95.80
17762;DHT22;9005;48.838;10.112;2024-03-06T02:47:17;3.70;96.00
17762;DHT22;9005;48.838;10.112;2024-03-06T02:49:44;3.80;96.10
17762;DHT22;9005;48.838;10.112;2024-03-06T02:52:11;3.80;96.40
17762;DHT22;9005;48.838;10.112;2024-03-06T02:54:37;3.80;96.40
17762;DHT22;9005;48.838;10.112;2024-03-06T02:57:08;3.80;96.40
17762;DHT22;9005;48.838;10.112;2024-03-06T02:59:35;3.80;96.50
17762;DHT22;9005;48.838;10.112;2024-03-06T03:02:01;3.80;96.40
17762;DHT22;9005;48.838;10.112;2024-03-06T03:04:29;3.70;96.30
17762;DHT22;9005;48.838;10.112;2024-03-06T03:06:55;3.70;96.00
17762;DHT22;9005;48.838;10.112;2024-03-06T03:09:22;3.70;96.10
17762;DHT22;9005;48.838;10.112;2024-03-06T03:11:49;3.70;95.90
17762;DHT22;9005;48.838;10.112;2024-03-06T03:14:17;3.70;96.00
17762;DHT22;9005;48.838;10.112;2024-03-06T03:16:44;3.70;95.90
17762;DHT22;9005;48.838;10.112;2024-03-06T03:19:11;3.60;95.90
17762;DHT22;9005;48.838;10.112;2024-03-06T03:21:37;3.60;95.80
17762;DHT22;9005;48.838;10.112;2024-03-06T03:24:05;3.60;95.70
17762;DHT22;9005;48.838;10.112;2024-03-06T03:26:31;3.60;95.80
17762;DHT22;9005;48.838;10.112;2024-03-06T03:28:58;3.60;95.80
17762;DHT22;9005;48.838;10.112;2024-03-06T03:31:26;3.60;95.70
17762;DHT22;9005;48.838;10.112;2024-03-06T03:33:53;3.60;95.80
17762;DHT22;9005;48.838;10.112;2024-03-06T03:36:19;3.50;95.80
17762;DHT22;9005;48.838;10.112;2024-03-06T03:38:46;3.60;95.90
17762;DHT22;9005;48.838;10.112;2024-03-06T03:41:13;3.50;95.80
17762;DHT22;9005;48.838;10.112;2024-03-06T03:43:42;3.50;96.00
17762;DHT22;9005;48.838;10.112;2024-03-06T03:46:08;3.50;96.10
17762;DHT22;9005;48.838;10.112;2024-03-06T03:48:37;3.60;96.20
17762;DHT22;9005;48.838;10.112;2024-03-06T03:51:04;3.60;96.30
17762;DHT22;9005;48.838;10.112;2024-03-06T03:53:32;3.60;96.40
17762;DHT22;9005;48.838;10.112;2024-03-06T03:55:59;3.60;96.50
17762;DHT22;9005;48.838;10.112;2024-03-06T03:58:26;3.60;96.50
17762;DHT22;9005;48.838;10.112;2024-03-06T04:00:52;3.60;96.50
17762;DHT22;9005;48.838;10.112;2024-03-06T04:03:20;3.60;96.40
17762;DHT22;9005;48.838;10.112;2024-03-06T04:05:48;3.50;96.40
17762;DHT22;9005;48.838;10.112;2024-03-06T04:08:15;3.50;96.30
17762;DHT22;9005;48.838;10.112;2024-03-06T04:10:42;3.50;96.50
17762;DHT22;9005;48.838;10.112;2024-03-06T04:13:10;3.50;96.50
17762;DHT22;9005;48.838;10.112;2024-03-06T04:15:37;3.50;96.50
17762;DHT22;9005;48.838;10.112;2024-03-06T04:18:04;3.50;96.50
17762;DHT22;9005;48.838;10.112;2024-03-06T04:20:31;3.50;96.60
17762;DHT22;9005;48.838;10.112;2024-03-06T04:22:59;3.50;96.40
17762;DHT22;9005;48.838;10.112;2024-03-06T04:25:26;3.50;96.60
17762;DHT22;9005;48.838;10.112;2024-03-06T04:27:52;3.50;96.60
17762;DHT22;9005;48.838;10.112;2024-03-06T04:30:19;3.50;96.50
17762;DHT22;9005;48.838;10.112;2024-03-06T04:32:46;3.50;96.50
17762;DHT22;9005;48.838;10.112;2024-03-06T04:35:13;3.50;96.60
17762;DHT22;9005;48.838;10.112;2024-03-06T04:37:40;3.50;96.60
17762;DHT22;9005;48.838;10.112;2024-03-06T04:40:09;3.50;96.70
17762;DHT22;9005;48.838;10.112;2024-03-06T04:42:36;3.50;96.70
17762;DHT22;9005;48.838;10.112;2024-03-06T04:45:02;3.50;96.70
17762;DHT22;9005;48.838;10.112;2024-03-06T04:47:29;3.50;96.80
17762;DHT22;9005;48.838;10.112;2024-03-06T04:49:56;3.50;96.90
17762;DHT22;9005;48.838;10.112;2024-03-06T04:52:24;3.50;96.80
17762;DHT22;9005;48.838;10.112;2024-03-06T04:54:51;3.50;96.80
17762;DHT22;9005;48.838;10.112;2024-03-06T04:57:19;3.50;96.90
17762;DHT22;9005;48.838;10.112;2024-03-06T04:59:45;3.50;96.80
17762;DHT22;9005;48.838;10.112;2024-03-06T05:02:12;3.50;96.90
17762;DHT22;9005;48.838;10.112;2024-03-06T05:04:39;3.50;97.00
17762;DHT22;9005;48.838;10.112;2024-03-06T05:07:05;3.50;97.00
17762;DHT22;9005;48.838;10.112;2024-03-06T05:09:31;3.60;97.00
17762;DHT22;9005;48.838;10.112;2024-03-06T05:11:58;3.60;97.10
17762;DHT22;9005;48.838;10.112;2024-03-06T05:14:26;3.60;97.10
17762;DHT22;9005;48.838;10.112;2024-03-06T05:16:52;3.50;97.10
17762;DHT22;9005;48.838;10.112;2024-03-06T05:19:19;3.60;97.10
17762;DHT22;9005;48.838;10.112;2024-03-06T05:21:46;3.70;97.20
17762;DHT22;9005;48.838;10.112;2024-03-06T05:24:13;3.70;97.20
17762;DHT22;9005;48.838;10.112;2024-03-06T05:26:39;3.80;97.40
17762;DHT22;9005;48.838;10.112;2024-03-06T05:29:06;3.80;97.30
17762;DHT22;9005;48.838;10.112;2024-03-06T05:31:34;3.70;97.30
17762;DHT22;9005;48.838;10.112;2024-03-06T05:34:01;3.70;97.20
17762;DHT22;9005;48.838;10.112;2024-03-06T05:36:28;3.70;97.30
17762;DHT22;9005;48.838;10.112;2024-03-06T05:38:54;3.60;97.20
17762;DHT22;9005;48.838;10.112;2024-03-06T05:41:21;3.60;97.20
17762;DHT22;9005;48.838;10.112;2024-03-06T05:43:48;3.60;97.20
17762;DHT22;9005;48.838;10.112;2024-03-06T05:46:14;3.60;97.20
17762;DHT22;9005;48.838;10.112;2024-03-06T05:48:43;3.60;97.20
17762;DHT22;9005;48.838;10.112;2024-03-06T05:51:10;3.60;97.20
17762;DHT22;9005;48.838;10.112;2024-03-06T05:53:37;3.50;97.10
17762;DHT22;9005;48.838;10.112;2024-03-06T05:56:06;3.50;97.20
17762;DHT22;9005;48.838;10.112;2024-03-06T05:58:33;3.50;97.20
17762;DHT22;9005;48.838;10.112;2024-03-06T06:01:00;3.50;97.20
17762;DHT22;9005;48.838;10.112;2024-03-06T06:03:28;3.50;97.20
17762;DHT22;9005;48.838;10.112;2024-03-06T06:05:57;3.50;97.10
17762;DHT22;9005;48.838;10.112;2024-03-06T06:08:24;3.50;97.20
17762;DHT22;9005;48.838;10.112;2024-03-06T06:10:50;3.50;97.20
17762;DHT22;9005;48.838;10.112;2024-03-06T06:13:18;3.60;97.30
17762;DHT22;9005;48.838;10.112;2024-03-06T06:15:44;3.70;97.40
17762;DHT22;9005;48.838;10.112;2024-03-06T06:18:11;3.60;97.40
17762;DHT22;9005;48.838;10.112;2024-03-06T06:20:40;3.60;97.30
17762;DHT22;9005;48.838;10.112;2024-03-06T06:23:09;3.60;97.30
17762;DHT22;9005;48.838;10.112;2024-03-06T06:25:35;3.50;97.20
17762;DHT22;9005;48.838;10.112;2024-03-06T06:28:02;3.50;97.20
17762;DHT22;9005;48.838;10.112;2024-03-06T06:30:29;3.50;97.20
17762;DHT22;9005;48.838;10.112;2024-03-06T06:32:56;3.50;97.20
17762;DHT22;9005;48.838;10.112;2024-03-06T06:35:22;3.50;97.30
17762;DHT22;9005;48.838;10.112;2024-03-06T06:37:50;3.50;97.30
17762;DHT22;9005;48.838;10.112;2024-03-06T06:40:18;3.50;97.20
17762;DHT22;9005;48.838;10.112;2024-03-06T06:42:47;3.50;97.30
17762;DHT22;9005;48.838;10.112;2024-03-06T06:45:15;3.50;97.40
17762;DHT22;9005;48.838;10.112;2024-03-06T06:47:42;3.50;97.40
17762;DHT22;9005;48.838;10.112;2024-03-06T06:50:09;3.60;97.40
17762;DHT22;9005;48.838;10.112;2024-03-06T06:52:37;3.60;97.40
17762;DHT22;9005;48.838;10.112;2024-03-06T06:55:04;3.60;97.40
17762;DHT22;9005;48.838;10.112;2024-03-06T06:57:33;3.60;97.40
17762;DHT22;9005;48.838;10.112;2024-03-06T07:00:00;3.60;97.50
17762;DHT22;9005;48.838;10.112;2024-03-06T07:02:27;3.60;97.40
17762;DHT22;9005;48.838;10.112;2024-03-06T07:04:54;3.60;97.50
17762;DHT22;9005;48.838;10.112;2024-03-06T07:07:20;3.70;97.50
17762;DHT22;9005;48.838;10.112;2024-03-06T07:09:48;3.70;97.60
17762;DHT22;9005;48.838;10.112;2024-03-06T07:12:15;3.70;97.60
17762;DHT22;9005;48.838;10.112;2024-03-06T07:14:43;3.70;97.50
17762;DHT22;9005;48.838;10.112;2024-03-06T07:17:10;3.60;97.50
17762;DHT22;9005;48.838;10.112;2024-03-06T07:19:36;3.60;97.60
17762;DHT22;9005;48.838;10.112;2024-03-06T07:22:03;3.60;97.50
17762;DHT22;9005;48.838;10.112;2024-03-06T07:24:30;3.60;97.60
17762;DHT22;9005;48.838;10.112;2024-03-06T07:26:56;3.60;97.60
17762;DHT22;9005;48.838;10.112;2024-03-06T07:29:23;3.70;97.50
17762;DHT22;9005;48.838;10.112;2024-03-06T07:31:51;3.70;97.50
17762;DHT22;9005;48.838;10.112;2024-03-06T07:34:19;3.60;97.60
17762;DHT22;9005;48.838;10.112;2024-03-06T07:36:47;3.70;97.50
17762;DHT22;9005;48.838;10.112;2024-03-06T07:39:15;3.70;97.50
17762;DHT22;9005;48.838;10.112;2024-03-06T07:41:42;3.70;97.50
17762;DHT22;9005;48.838;10.112;2024-03-06T07:44:09;3.70;97.60
17762;DHT22;9005;48.838;10.112;2024-03-06T07:46:36;3.70;97.50
17762;DHT22;9005;48.838;10.112;2024-03-06T07:49:04;3.70;97.60
17762;DHT22;9005;48.838;10.112;2024-03-06T07:51:31;3.70;97.60
17762;DHT22;9005;48.838;10.112;2024-03-06T07:53:58;3.70;97.70
17762;DHT22;9005;48.838;10.112;2024-03-06T07:56:25;3.70;97.60
17762;DHT22;9005;48.838;10.112;2024-03-06T07:58:52;3.70;97.60
17762;DHT22;9005;48.838;10.112;2024-03-06T08:01:19;3.70;97.60
17762;DHT22;9005;48.838;10.112;2024-03-06T08:03:46;3.80;97.60
17762;DHT22;9005;48.838;10.112;2024-03-06T08:06:14;3.80;97.60
17762;DHT22;9005;48.838;10.112;2024-03-06T08:08:42;3.80;97.60
17762;DHT22;9005;48.838;10.112;2024-03-06T08:11:09;3.80;97.60
17762;DHT22;9005;48.838;10.112;2024-03-06T08:13:37;3.90;97.70
17762;DHT22;9005;48.838;10.112;2024-03-06T08:16:04;3.90;97.60
17762;DHT22;9005;48.838;10.112;2024-03-06T08:18:32;3.80;97.50
17762;DHT22;9005;48.838;10.112;2024-03-06T08:21:00;3.80;97.50
17762;DHT22;9005;48.838;10.112;2024-03-06T08:23:28;3.90;97.50
17762;DHT22;9005;48.838;10.112;2024-03-06T08:25:56;3.90;97.50
17762;DHT22;9005;48.838;10.112;2024-03-06T08:28:22;3.90;97.60
17762;DHT22;9005;48.838;10.112;2024-03-06T08:30:49;4.00;97.50
17762;DHT22;9005;48.838;10.112;2024-03-06T08:33:17;3.90;97.60
17762;DHT22;9005;48.838;10.112;2024-03-06T08:35:46;4.00;97.40
17762;DHT22;9005;48.838;10.112;2024-03-06T08:38:13;4.00;97.40
17762;DHT22;9005;48.838;10.112;2024-03-06T08:40:41;4.00;97.40
17762;DHT22;9005;48.838;10.112;2024-03-06T08:43:10;4.00;97.30
17762;DHT22;9005;48.838;10.112;2024-03-06T08:45:38;4.00;97.30
17762;DHT22;9005;48.838;10.112;2024-03-06T08:48:05;4.00;97.30
17762;DHT22;9005;48.838;10.112;2024-03-06T08:50:32;4.00;97.20
17762;DHT22;9005;48.838;10.112;2024-03-06T08:52:58;4.00;97.20
17762;DHT22;9005;48.838;10.112;2024-03-06T08:55:26;4.00;97.10
17762;DHT22;9005;48.838;10.112;2024-03-06T08:57:55;4.00;97.20
17762;DHT22;9005;48.838;10.112;2024-03-06T09:00:21;4.10;97.20
17762;DHT22;9005;48.838;10.112;2024-03-06T09:02:48;4.10;97.20
17762;DHT22;9005;48.838;10.112;2024-03-06T09:05:16;4.10;97.20
17762;DHT22;9005;48.838;10.112;2024-03-06T09:07:43;4.10;97.20
17762;DHT22;9005;48.838;10.112;2024-03-06T09:10:10;4.10;97.30
17762;DHT22;9005;48.838;10.112;2024-03-06T09:12:37;4.20;97.40
17762;DHT22;9005;48.838;10.112;2024-03-06T09:15:06;4.10;97.30
17762;DHT22;9005;48.838;10.112;2024-03-06T09:17:34;4.20;97.40
17762;DHT22;9005;48.838;10.112;2024-03-06T09:20:01;4.20;97.40
17762;DHT22;9005;48.838;10.112;2024-03-06T09:22:35;4.20;97.30
17762;DHT22;9005;48.838;10.112;2024-03-06T09:25:03;4.30;97.30
17762;DHT22;9005;48.838;10.112;2024-03-06T09:27:30;4.30;97.40
17762;DHT22;9005;48.838;10.112;2024-03-06T09:29:57;4.30;97.30
17762;DHT22;9005;48.838;10.112;2024-03-06T09:32:25;4.30;97.30
17762;DHT22;9005;48.838;10.112;2024-03-06T09:34:52;4.40;97.30
17762;DHT22;9005;48.838;10.112;2024-03-06T09:37:18;4.40;97.20
17762;DHT22;9005;48.838;10.112;2024-03-06T09:39:45;4.40;97.20
17762;DHT22;9005;48.838;10.112;2024-03-06T09:42:13;4.50;97.20
17762;DHT22;9005;48.838;10.112;2024-03-06T09:44:40;4.60;97.30
17762;DHT22;9005;48.838;10.112;2024-03-06T09:47:07;4.60;97.30
17762;DHT22;9005;48.838;10.112;2024-03-06T09:49:38;4.70;97.20
17762;DHT22;9005;48.838;10.112;2024-03-06T09:52:05;4.70;97.20
17762;DHT22;9005;48.838;10.112;2024-03-06T09:54:31;4.70;97.10
17762;DHT22;9005;48.838;10.112;2024-03-06T09:56:58;4.70;96.90
17762;DHT22;9005;48.838;10.112;2024-03-06T09:59:25;4.70;96.90
17762;DHT22;9005;48.838;10.112;2024-03-06T10:01:54;4.80;96.80
17762;DHT22;9005;48.838;10.112;2024-03-06T10:04:22;4.70;96.70
17762;DHT22;9005;48.838;10.112;2024-03-06T10:06:53;4.70;96.30
17762;DHT22;9005;48.838;10.112;2024-03-06T10:09:21;4.70;96.30
17762;DHT22;9005;48.838;10.112;2024-03-06T10:11:47;4.70;96.40
17762;DHT22;9005;48.838;10.112;2024-03-06T10:14:15;4.70;96.40
17762;DHT22;9005;48.838;10.112;2024-03-06T10:16:57;4.70;96.30
17762;DHT22;9005;48.838;10.112;2024-03-06T10:19:24;4.70;96.30
17762;DHT22;9005;48.838;10.112;2024-03-06T10:21:54;4.70;96.40
17762;DHT22;9005;48.838;10.112;2024-03-06T10:24:23;4.70;96.40
17762;DHT22;9005;48.838;10.112;2024-03-06T10:26:51;4.80;96.60
17762;DHT22;9005;48.838;10.112;2024-03-06T10:29:20;4.90;96.80
17762;DHT22;9005;48.838;10.112;2024-03-06T10:31:48;4.90;96.90
17762;DHT22;9005;48.838;10.112;2024-03-06T10:34:16;4.90;96.80
17762;DHT22;9005;48.838;10.112;2024-03-06T10:36:43;4.90;96.70
17762;DHT22;9005;48.838;10.112;2024-03-06T10:39:12;4.90;96.40
17762;DHT22;9005;48.838;10.112;2024-03-06T10:41:40;4.90;96.30
17762;DHT22;9005;48.838;10.112;2024-03-06T10:44:11;4.90;96.60
17762;DHT22;9005;48.838;10.112;2024-03-06T10:46:41;4.90;96.50
17762;DHT22;9005;48.838;10.112;2024-03-06T10:49:10;4.90;96.50
17762;DHT22;9005;48.838;10.112;2024-03-06T10:51:40;4.90;96.70
17762;DHT22;9005;48.838;10.112;2024-03-06T10:54:09;5.00;96.80
17762;DHT22;9005;48.838;10.112;2024-03-06T10:56:38;5.00;97.00
17762;DHT22;9005;48.838;10.112;2024-03-06T10:59:08;5.10;97.10
17762;DHT22;9005;48.838;10.112;2024-03-06T11:01:37;5.10;97.20
17762;DHT22;9005;48.838;10.112;2024-03-06T11:04:05;5.10;97.10
17762;DHT22;9005;48.838;10.112;2024-03-06T11:06:33;5.10;97.00
17762;DHT22;9005;48.838;10.112;2024-03-06T11:09:00;5.10;97.00
17762;DHT22;9005;48.838;10.112;2024-03-06T11:11:27;5.10;97.00
17762;DHT22;9005;48.838;10.112;2024-03-06T11:13:56;5.10;97.00
17762;DHT22;9005;48.838;10.112;2024-03-06T11:16:30;5.10;97.00
17762;DHT22;9005;48.838;10.112;2024-03-06T11:19:05;5.10;97.00
17762;DHT22;9005;48.838;10.112;2024-03-06T11:21:32;5.10;97.00
17762;DHT22;9005;48.838;10.112;2024-03-06T11:24:19;5.10;97.00
17762;DHT22;9005;48.838;10.112;2024-03-06T11:26:47;5.10;97.00
17762;DHT22;9005;48.838;10.112;2024-03-06T11:29:17;5.10;97.00
17762;DHT22;9005;48.838;10.112;2024-03-06T11:32:04;5.10;97.10
17762;DHT22;9005;48.838;10.112;2024-03-06T11:34:33;5.10;97.00
17762;DHT22;9005;48.838;10.112;2024-03-06T11:37:03;5.10;97.00
17762;DHT22;9005;48.838;10.112;2024-03-06T11:39:33;5.10;97.00
17762;DHT22;9005;48.838;10.112;2024-03-06T11:42:02;5.10;97.10
17762;DHT22;9005;48.838;10.112;2024-03-06T11:44:31;5.10;97.10
17762;DHT22;9005;48.838;10.112;2024-03-06T11:47:00;5.10;97.10
17762;DHT22;9005;48.838;10.112;2024-03-06T11:49:27;5.10;97.10
17762;DHT22;9005;48.838;10.112;2024-03-06T11:51:57;5.10;97.10
17762;DHT22;9005;48.838;10.112;2024-03-06T11:54:25;5.10;97.20
17762;DHT22;9005;48.838;10.112;2024-03-06T11:56:53;5.20;97.20
17762;DHT22;9005;48.838;10.112;2024-03-06T11:59:21;5.20;97.30
17762;DHT22;9005;48.838;10.112;2024-03-06T12:01:50;5.20;97.30
17762;DHT22;9005;48.838;10.112;2024-03-06T12:04:18;5.20;97.30
17762;DHT22;9005;48.838;10.112;2024-03-06T12:06:45;5.30;97.30
17762;DHT22;9005;48.838;10.112;2024-03-06T12:09:11;5.30;97.30
17762;DHT22;9005;48.838;10.112;2024-03-06T12:11:38;5.30;97.20
17762;DHT22;9005;48.838;10.112;2024-03-06T12:14:05;5.30;97.20
17762;DHT22;9005;48.838;10.112;2024-03-06T12:16:33;5.30;97.30
17762;DHT22;9005;48.838;10.112;2024-03-06T12:19:01;5.40;97.40
17762;DHT22;9005;48.838;10.112;2024-03-06T12:21:29;5.50;97.40
17762;DHT22;9005;48.838;10.112;2024-03-06T12:24:03;5.60;97.60
17762;DHT22;9005;48.838;10.112;2024-03-06T12:26:30;5.80;97.70
17762;DHT22;9005;48.838;10.112;2024-03-06T12:29:07;5.90;97.90
17762;DHT22;9005;48.838;10.112;2024-03-06T12:31:35;6.00;97.90
17762;DHT22;9005;48.838;10.112;2024-03-06T12:34:03;5.90;97.90
17762;DHT22;9005;48.838;10.112;2024-03-06T12:36:32;5.90;97.70
17762;DHT22;9005;48.838;10.112;2024-03-06T12:39:00;5.80;97.50
17762;DHT22;9005;48.838;10.112;2024-03-06T12:41:28;5.80;97.40
17762;DHT22;9005;48.838;10.112;2024-03-06T12:43:55;5.80;97.40
17762;DHT22;9005;48.838;10.112;2024-03-06T12:46:22;5.80;97.40
17762;DHT22;9005;48.838;10.112;2024-03-06T12:48:49;5.80;97.40
17762;DHT22;9005;48.838;10.112;2024-03-06T12:51:18;5.80;97.50
17762;DHT22;9005;48.838;10.112;2024-03-06T12:53:44;5.80;97.40
17762;DHT22;9005;48.838;10.112;2024-03-06T12:56:11;5.80;97.30
17762;DHT22;9005;48.838;10.112;2024-03-06T12:58:38;5.80;97.20
17762;DHT22;9005;48.838;10.112;2024-03-06T13:01:04;5.80;97.20
17762;DHT22;9005;48.838;10.112;2024-03-06T13:03:31;5.80;97.30
17762;DHT22;9005;48.838;10.112;2024-03-06T13:05:59;5.80;97.40
17762;DHT22;9005;48.838;10.112;2024-03-06T13:08:27;5.90;97.30
17762;DHT22;9005;48.838;10.112;2024-03-06T13:10:54;5.90;97.50
17762;DHT22;9005;48.838;10.112;2024-03-06T13:13:21;6.10;97.60
17762;DHT22;9005;48.838;10.112;2024-03-06T13:15:49;6.10;97.60
17762;DHT22;9005;48.838;10.112;2024-03-06T13:18:16;6.10;97.70
17762;DHT22;9005;48.838;10.112;2024-03-06T13:20:43;6.20;97.80
17762;DHT22;9005;48.838;10.112;2024-03-06T13:23:10;6.20;97.70
17762;DHT22;9005;48.838;10.112;2024-03-06T13:25:38;6.10;97.70
17762;DHT22;9005;48.838;10.112;2024-03-06T13:28:05;6.10;97.70
17762;DHT22;9005;48.838;10.112;2024-03-06T13:30:34;6.10;97.60
17762;DHT22;9005;48.838;10.112;2024-03-06T13:33:01;6.20;97.60
17762;DHT22;9005;48.838;10.112;2024-03-06T13:35:27;6.20;97.60
17762;DHT22;9005;48.838;10.112;2024-03-06T13:37:54;6.20;97.70
17762;DHT22;9005;48.838;10.112;2024-03-06T13:40:21;6.30;97.70
17762;DHT22;9005;48.838;10.112;2024-03-06T13:42:49;6.30;97.70
17762;DHT22;9005;48.838;10.112;2024-03-06T13:45:15;6.40;97.90
17762;DHT22;9005;48.838;10.112;2024-03-06T13:47:43;6.40;97.80
17762;DHT22;9005;48.838;10.112;2024-03-06T13:50:11;6.50;97.90
17762;DHT22;9005;48.838;10.112;2024-03-06T13:52:38;6.60;97.90
17762;DHT22;9005;48.838;10.112;2024-03-06T13:55:06;6.70;98.00
17762;DHT22;9005;48.838;10.112;2024-03-06T13:57:33;6.80;98.10
17762;DHT22;9005;48.838;10.112;2024-03-06T14:00:02;6.80;98.00
17762;DHT22;9005;48.838;10.112;2024-03-06T14:02:30;6.80;98.10
17762;DHT22;9005;48.838;10.112;2024-03-06T14:04:57;6.90;98.00
17762;DHT22;9005;48.838;10.112;2024-03-06T14:07:24;7.00;98.00
17762;DHT22;9005;48.838;10.112;2024-03-06T14:09:50;7.00;98.00
17762;DHT22;9005;48.838;10.112;2024-03-06T14:12:17;7.00;97.50
17762;DHT22;9005;48.838;10.112;2024-03-06T14:14:44;7.00;97.00
17762;DHT22;9005;48.838;10.112;2024-03-06T14:17:12;7.10;96.40
17762;DHT22;9005;48.838;10.112;2024-03-06T14:19:39;7.10;96.40
17762;DHT22;9005;48.838;10.112;2024-03-06T14:22:07;7.20;96.40
17762;DHT22;9005;48.838;10.112;2024-03-06T14:24:34;7.20;95.30
17762;DHT22;9005;48.838;10.112;2024-03-06T14:27:01;7.10;94.90
17762;DHT22;9005;48.838;10.112;2024-03-06T14:29:28;7.20;94.90
17762;DHT22;9005;48.838;10.112;2024-03-06T14:31:55;7.20;95.20
17762;DHT22;9005;48.838;10.112;2024-03-06T14:34:23;7.20;94.90
17762;DHT22;9005;48.838;10.112;2024-03-06T14:36:50;7.10;93.00
17762;DHT22;9005;48.838;10.112;2024-03-06T14:39:17;7.00;92.40
17762;DHT22;9005;48.838;10.112;2024-03-06T14:41:43;6.90;93.40
17762;DHT22;9005;48.838;10.112;2024-03-06T14:44:12;6.90;94.10
17762;DHT22;9005;48.838;10.112;2024-03-06T14:46:40;6.90;94.80
17762;DHT22;9005;48.838;10.112;2024-03-06T14:49:07;7.00;95.30
17762;DHT22;9005;48.838;10.112;2024-03-06T14:51:35;7.00;95.40
17762;DHT22;9005;48.838;10.112;2024-03-06T14:54:02;7.00;95.20
17762;DHT22;9005;48.838;10.112;2024-03-06T14:56:29;7.00;94.50
17762;DHT22;9005;48.838;10.112;2024-03-06T14:58:56;7.00;94.30
17762;DHT22;9005;48.838;10.112;2024-03-06T15:01:23;6.90;94.10
17762;DHT22;9005;48.838;10.112;2024-03-06T15:03:50;6.80;93.90
17762;DHT22;9005;48.838;10.112;2024-03-06T15:06:17;6.70;94.00
17762;DHT22;9005;48.838;10.112;2024-03-06T15:08:45;6.60;93.90
17762;DHT22;9005;48.838;10.112;2024-03-06T15:11:12;6.50;93.90
17762;DHT22;9005;48.838;10.112;2024-03-06T15:13:39;6.40;93.70
17762;DHT22;9005;48.838;10.112;2024-03-06T15:16:06;6.30;93.70
17762;DHT22;9005;48.838;10.112;2024-03-06T15:18:34;6.30;94.00
17762;DHT22;9005;48.838;10.112;2024-03-06T15:21:01;6.20;94.40
17762;DHT22;9005;48.838;10.112;2024-03-06T15:23:28;6.20;94.80
17762;DHT22;9005;48.838;10.112;2024-03-06T15:25:58;6.20;95.20
17762;DHT22;9005;48.838;10.112;2024-03-06T15:28:24;6.30;95.60
17762;DHT22;9005;48.838;10.112;2024-03-06T15:30:52;6.30;95.80
17762;DHT22;9005;48.838;10.112;2024-03-06T15:33:19;6.30;95.80
17762;DHT22;9005;48.838;10.112;2024-03-06T15:35:46;6.30;95.70
17762;DHT22;9005;48.838;10.112;2024-03-06T15:38:12;6.30;95.80
17762;DHT22;9005;48.838;10.112;2024-03-06T15:40:39;6.40;96.00
17762;DHT22;9005;48.838;10.112;2024-03-06T15:43:07;6.40;96.20
17762;DHT22;9005;48.838;10.112;2024-03-06T15:45:34;6.40;96.20